createdAt,value
2023-01-11T00:02:35.898Z,82.83
2023-01-11T00:07:34.756Z,82.48
2023-01-11T00:12:35.085Z,82.77
2023-01-11T00:17:34.163Z,83.75
2023-01-11T00:22:32.968Z,84.63
2023-01-11T00:27:32.092Z,84.02
2023-01-11T00:32:32.326Z,85.51
2023-01-11T00:37:32.840Z,85.20
2023-01-11T00:42:49.114Z,85.35
2023-01-11T00:48:06.018Z,85.28
2023-01-11T00:53:09.157Z,84.63
2023-01-11T00:58:08.400Z,85.33
2023-01-11T01:03:10.136Z,84.56
2023-01-11T01:08:09.069Z,85.04
2023-01-11T01:13:25.490Z,85.94
2023-01-11T01:18:25.867Z,84.93
2023-01-11T01:23:24.788Z,84.68
2023-01-11T01:28:28.115Z,83.92
2023-01-11T01:33:28.402Z,84.22
2023-01-11T01:38:27.333Z,84.96
2023-01-11T01:43:47.763Z,85.58
2023-01-11T01:48:52.564Z,85.56
2023-01-11T01:53:55.596Z,85.48
2023-01-11T01:58:59.087Z,84.88
2023-01-11T02:03:59.431Z,84.61
2023-01-11T02:09:03.686Z,86.32
2023-01-11T02:14:05.703Z,85.47
2023-01-11T02:19:07.964Z,84.62
2023-01-11T02:24:43.115Z,84.01
2023-01-11T02:29:55.738Z,83.47
2023-01-11T02:35:04.583Z,83.03
2023-01-11T02:40:10.662Z,82.43
2023-01-11T02:45:19.123Z,82.82
2023-01-11T02:50:23.733Z,82.11
2023-01-11T02:55:26.113Z,82.37
2023-01-11T03:00:27.016Z,82.46
2023-01-11T03:05:25.974Z,82.30
2023-01-11T03:10:37.179Z,82.29
2023-01-11T03:15:55.912Z,82.23
2023-01-11T03:21:02.428Z,81.78
2023-01-11T03:26:10.220Z,81.72
2023-01-11T03:31:16.864Z,82.02
2023-01-11T03:36:21.471Z,82.17
2023-01-11T03:41:23.744Z,81.81
2023-01-11T03:46:29.074Z,82.63
2023-01-11T03:51:31.313Z,82.81
2023-01-11T03:56:38.231Z,82.84
2023-01-11T04:01:42.039Z,82.46
2023-01-11T04:06:41.089Z,82.24
2023-01-11T04:11:40.005Z,83.43
2023-01-11T04:16:40.284Z,83.07
2023-01-11T04:21:39.249Z,83.70
2023-01-11T04:26:38.156Z,84.40
2023-01-11T04:31:37.138Z,84.00
2023-01-11T04:36:37.577Z,83.68
2023-01-11T04:41:54.154Z,84.47
2023-01-11T04:46:53.463Z,83.76
2023-01-11T04:51:53.832Z,83.63
2023-01-11T04:56:52.771Z,83.66
2023-01-11T05:01:51.789Z,82.86
2023-01-11T05:06:50.837Z,82.76
2023-01-11T05:11:51.231Z,82.73
2023-01-11T05:16:51.337Z,83.09
2023-01-11T05:21:50.199Z,83.19
2023-01-11T05:27:01.699Z,83.27
2023-01-11T05:32:03.876Z,83.31
2023-01-11T05:37:03.001Z,83.31
2023-01-11T05:42:03.304Z,82.75
2023-01-11T05:47:02.242Z,82.16
2023-01-11T05:52:01.082Z,81.65
2023-01-11T05:57:00.031Z,81.66
2023-01-11T06:02:02.189Z,81.34
2023-01-11T06:07:01.289Z,81.45
2023-01-11T06:12:00.352Z,81.25
2023-01-11T06:17:02.963Z,80.83
2023-01-11T06:22:03.954Z,80.66
2023-01-11T06:27:03.223Z,80.42
2023-01-11T06:32:03.687Z,80.07
2023-01-11T06:37:02.902Z,79.68
2023-01-11T06:42:04.298Z,79.61
2023-01-11T06:47:05.197Z,79.56
2023-01-11T06:52:06.189Z,79.00
2023-01-11T06:57:05.189Z,78.83
2023-01-11T07:02:05.607Z,78.66
2023-01-11T07:07:07.035Z,78.09
2023-01-11T07:12:09.077Z,78.10
2023-01-11T07:17:09.981Z,77.96
2023-01-11T07:22:08.840Z,77.72
2023-01-11T07:27:07.738Z,77.89
2023-01-11T07:32:08.382Z,78.34
2023-01-11T07:37:29.100Z,78.71
2023-01-11T07:42:46.161Z,79.30
2023-01-11T07:47:45.345Z,79.75
2023-01-11T07:52:51.452Z,79.59
2023-01-11T07:57:54.045Z,79.25
2023-01-11T08:02:54.190Z,80.19
2023-01-11T08:07:55.083Z,80.37
2023-01-11T08:13:11.788Z,80.40
2023-01-11T08:18:11.736Z,79.91
2023-01-11T08:23:12.272Z,79.63
2023-01-11T08:28:12.802Z,80.48
2023-01-11T08:33:12.093Z,80.62
2023-01-11T08:38:13.254Z,80.25
2023-01-11T08:43:12.481Z,80.07
2023-01-11T08:48:12.353Z,80.08
2023-01-11T08:53:13.064Z,79.62
2023-01-11T08:58:12.008Z,79.48
2023-01-11T09:03:13.282Z,79.38
2023-01-11T09:08:13.710Z,79.61
2023-01-11T09:13:13.250Z,79.51
2023-01-11T09:18:12.343Z,80.27
2023-01-11T09:23:11.270Z,80.91
2023-01-11T09:28:14.642Z,79.82
2023-01-11T09:33:13.780Z,79.03
2023-01-11T09:38:12.971Z,79.50
2023-01-11T09:43:16.953Z,78.87
2023-01-11T09:48:29.004Z,78.54
2023-01-11T09:53:35.187Z,78.31
2023-01-11T09:58:51.907Z,78.21
2023-01-11T10:04:24.229Z,78.55
2023-01-11T10:18:22.628Z,77.75
2023-01-11T10:26:41.707Z,77.26
2023-01-11T10:32:06.718Z,77.04
2023-01-11T10:37:30.686Z,77.53
2023-01-11T10:42:43.134Z,77.65
2023-01-11T10:47:50.645Z,78.18
2023-01-11T10:53:16.029Z,78.36
2023-01-11T10:58:26.645Z,78.60
2023-01-11T11:03:52.368Z,78.79
2023-01-11T11:09:01.996Z,79.26
2023-01-11T11:14:14.179Z,79.43
2023-01-11T11:19:59.929Z,80.19
2023-01-11T11:25:08.593Z,79.72
2023-01-11T11:30:17.240Z,79.54
2023-01-11T11:40:40.222Z,81.55
2023-01-11T11:45:52.043Z,81.72
2023-01-11T11:50:53.089Z,81.97
2023-01-11T11:55:57.365Z,82.90
2023-01-11T12:00:56.577Z,82.50
2023-01-11T12:06:07.902Z,83.37
2023-01-11T12:11:09.567Z,83.99
2023-01-11T12:16:21.437Z,85.73
2023-01-11T12:21:22.409Z,86.87
2023-01-11T12:26:33.934Z,87.24
2023-01-11T12:31:43.994Z,88.36
2023-01-11T12:36:54.428Z,86.18
2023-01-11T12:42:07.713Z,85.34
2023-01-11T12:47:32.622Z,85.90
2023-01-11T12:52:50.739Z,88.71
2023-01-11T12:58:02.008Z,90.09
2023-01-11T13:03:34.488Z,91.64
2023-01-11T13:08:53.462Z,91.13
2023-01-11T13:14:02.100Z,91.70
2023-01-11T13:19:05.875Z,91.56
2023-01-11T13:24:10.982Z,91.28
2023-01-11T13:35:05.757Z,92.88
2023-01-11T13:40:11.828Z,93.44
2023-01-11T13:45:20.046Z,93.90
2023-01-11T13:50:26.559Z,93.52
2023-01-11T14:01:16.127Z,95.29
2023-01-11T14:12:28.288Z,93.22
2023-01-11T14:17:43.699Z,94.93
2023-01-11T14:22:49.397Z,95.51
2023-01-11T14:28:29.247Z,95.75
2023-01-11T14:33:47.388Z,95.42
2023-01-11T14:39:23.855Z,97.37
2023-01-11T14:44:53.868Z,97.20
2023-01-11T14:50:34.414Z,96.86
2023-01-11T14:55:50.551Z,97.96
2023-01-11T15:01:22.483Z,98.39
2023-01-11T15:06:24.134Z,98.88
2023-01-11T15:11:42.578Z,98.42
2023-01-11T15:17:00.879Z,98.40
2023-01-11T15:22:03.821Z,97.51
2023-01-11T15:27:26.327Z,97.81
2023-01-11T15:32:44.243Z,98.22
2023-01-11T15:38:35.978Z,97.55
2023-01-11T15:44:00.693Z,98.66
2023-01-11T15:49:33.759Z,99.11
2023-01-11T15:54:58.028Z,99.71
2023-01-11T16:00:36.596Z,99.96
2023-01-11T16:05:43.002Z,100.00
2023-01-11T16:11:18.590Z,99.93
2023-01-11T16:16:23.651Z,98.60
2023-01-11T16:21:32.381Z,97.23
2023-01-11T16:26:33.217Z,97.31
2023-01-11T16:31:54.285Z,96.33
2023-01-11T16:36:53.373Z,96.03
2023-01-11T16:41:58.373Z,96.86
2023-01-11T16:47:19.099Z,97.24
2023-01-11T16:52:39.350Z,95.95
2023-01-11T16:57:44.710Z,94.71
2023-01-11T17:02:47.326Z,94.00
2023-01-11T17:07:46.410Z,93.51
2023-01-11T17:12:52.751Z,94.54
2023-01-11T17:17:52.404Z,94.26
2023-01-11T17:22:54.277Z,94.65
2023-01-11T17:28:00.760Z,94.40
2023-01-11T17:33:00.423Z,95.22
2023-01-11T17:38:01.139Z,94.77
2023-01-11T17:43:23.975Z,93.72
2023-01-11T17:48:24.146Z,93.69
2023-01-11T17:53:28.478Z,94.42
2023-01-11T17:58:29.908Z,94.85
2023-01-11T18:03:29.594Z,94.25
2023-01-11T18:08:28.974Z,94.59
2023-01-11T18:13:34.113Z,92.90
2023-01-11T18:18:45.055Z,92.27
2023-01-11T18:23:44.617Z,92.51
2023-01-11T18:28:45.366Z,93.79
2023-01-11T18:33:44.947Z,93.27
2023-01-11T18:38:44.491Z,93.66
2023-01-11T18:43:45.575Z,94.02
2023-01-11T18:48:44.663Z,93.63
2023-01-11T18:53:45.265Z,94.80
2023-01-11T18:58:46.112Z,92.42
2023-01-11T19:03:46.220Z,92.08
2023-01-11T19:08:45.951Z,91.66
2023-01-11T19:13:47.285Z,93.07
2023-01-11T19:18:47.558Z,91.76
2023-01-11T19:23:46.599Z,92.38
2023-01-11T19:28:47.499Z,91.56
2023-01-11T19:33:47.968Z,91.75
2023-01-11T19:38:50.272Z,94.34
2023-01-11T19:43:52.271Z,94.28
2023-01-11T19:48:51.751Z,91.96
2023-01-11T19:53:51.029Z,93.57
2023-01-11T19:58:51.680Z,91.32
2023-01-11T20:03:50.928Z,89.80
2023-01-11T20:08:51.415Z,90.42
2023-01-11T20:13:52.303Z,89.51
2023-01-11T20:18:55.335Z,89.18
2023-01-11T20:23:57.626Z,88.28
2023-01-11T20:28:59.324Z,90.92
2023-01-11T20:33:59.034Z,89.92
2023-01-11T20:38:58.089Z,90.87
2023-01-11T20:43:59.595Z,91.25
2023-01-11T20:48:59.591Z,90.67
2023-01-11T20:53:58.453Z,89.92
2023-01-11T20:59:09.619Z,89.48
2023-01-11T21:04:12.255Z,89.95
2023-01-11T21:09:14.532Z,90.68
2023-01-11T21:14:15.326Z,90.62
2023-01-11T21:19:16.124Z,88.82
2023-01-11T21:24:16.915Z,91.77
2023-01-11T21:29:22.091Z,91.04
2023-01-11T21:34:21.192Z,91.94
2023-01-11T21:39:20.366Z,90.16
2023-01-11T21:44:27.247Z,90.75
2023-01-11T21:49:30.728Z,90.01
2023-01-11T21:54:31.390Z,91.91
2023-01-11T21:59:33.890Z,90.03
2023-01-11T22:04:32.923Z,88.43
2023-01-11T22:09:32.249Z,87.83
2023-01-11T22:14:32.734Z,88.87
2023-01-11T22:19:33.678Z,87.59
2023-01-11T22:24:33.503Z,87.25
2023-01-11T22:29:37.548Z,87.09
2023-01-11T22:34:39.342Z,87.33
2023-01-11T22:39:38.231Z,89.27
2023-01-11T22:44:38.557Z,87.97
2023-01-11T22:49:37.472Z,87.75
2023-01-11T22:54:36.461Z,88.34
2023-01-11T22:59:36.339Z,91.62
2023-01-11T23:04:37.268Z,88.50
2023-01-11T23:09:36.409Z,88.79
2023-01-11T23:14:35.600Z,87.25
2023-01-11T23:19:36.754Z,86.44
2023-01-11T23:24:37.180Z,86.49
2023-01-11T23:29:36.515Z,86.60
2023-01-11T23:34:39.494Z,86.02
2023-01-11T23:39:38.502Z,87.10
2023-01-11T23:44:37.437Z,87.34
2023-01-11T23:49:38.121Z,87.28
2023-01-11T23:54:37.080Z,86.25
2023-01-11T23:59:36.039Z,85.42
